Main page
METAR-TAF:

METAR-TAF

Airports :

Bandirma, Turkey

Bandırma Airport

latitude: 40-19N, longitude: 027-58E, elevation: 51 m

METAR: missing

Time: 14:24 (11:24 UTC)

Forecast

The report was made 21 hours and 44 minutes ago, at 13:40 UTC
Forecast valid from 20 at 15 UTC to 20 at 24 UTC
Wind 15 kt from the Northeast
Visibility 10 km or more
Few clouds at a height of 1500 ft
Scattered clouds at a height of 3000 ft
Broken clouds at a height of 10000 ft
Temporary
from 20 at 16 UTC to 20 at 20 UTC
light rain showers
Temporary
from 20 at 20 UTC to 20 at 24 UTC
light rain showers

TAF: LTBG 201340Z 2015/2024 04015KT 9999 FEW015 SCT030 BKN100 TEMPO 2016/2020 -SHRA TEMPO 2020/2024 -SHRA

Weather observations and forecasts of more than 4000 airports (METAR and TAF reports).

The available stations are represented by yellow and red dots on the map.

Hover mouse over dot to see the name of the station.

Then click to see weather observations and forecasts.

To change the map : click on the green buttons with a black cross to zoom in, on the green button with a dash to zoom out, or on the green arrows for adjacent maps.


METAR-TAF: